sensor_id;sensor_type;location;lat;lon;timestamp;P1;durP1;ratioP1;P2;durP2;ratioP2
74624;SDS011;63131;52.298;8.056;2022-11-15T00:00:21;16.05;;;7.57;;
74624;SDS011;63131;52.298;8.056;2022-11-15T00:02:46;14.07;;;7.07;;
74624;SDS011;63131;52.298;8.056;2022-11-15T00:05:12;15.15;;;7.75;;
74624;SDS011;63131;52.298;8.056;2022-11-15T00:07:37;16.65;;;8.07;;
74624;SDS011;63131;52.298;8.056;2022-11-15T00:10:02;14.70;;;7.32;;
74624;SDS011;63131;52.298;8.056;2022-11-15T00:12:28;14.68;;;7.88;;
74624;SDS011;63131;52.298;8.056;2022-11-15T00:14:53;16.10;;;7.40;;
74624;SDS011;63131;52.298;8.056;2022-11-15T00:17:19;14.63;;;7.45;;
74624;SDS011;63131;52.298;8.056;2022-11-15T00:19:44;13.57;;;7.18;;
74624;SDS011;63131;52.298;8.056;2022-11-15T00:22:09;14.63;;;7.57;;
74624;SDS011;63131;52.298;8.056;2022-11-15T00:24:35;15.23;;;7.20;;
74624;SDS011;63131;52.298;8.056;2022-11-15T00:27:00;13.73;;;7.18;;
74624;SDS011;63131;52.298;8.056;2022-11-15T00:29:26;14.45;;;6.38;;
74624;SDS011;63131;52.298;8.056;2022-11-15T00:31:51;16.77;;;6.97;;
74624;SDS011;63131;52.298;8.056;2022-11-15T00:34:17;13.38;;;6.53;;
74624;SDS011;63131;52.298;8.056;2022-11-15T00:36:42;14.05;;;6.65;;
74624;SDS011;63131;52.298;8.056;2022-11-15T00:39:07;12.90;;;6.13;;
74624;SDS011;63131;52.298;8.056;2022-11-15T00:41:33;13.85;;;6.47;;
74624;SDS011;63131;52.298;8.056;2022-11-15T00:43:58;15.00;;;6.57;;
74624;SDS011;63131;52.298;8.056;2022-11-15T00:46:23;14.07;;;7.57;;
74624;SDS011;63131;52.298;8.056;2022-11-15T00:48:49;15.73;;;7.38;;
74624;SDS011;63131;52.298;8.056;2022-11-15T00:51:14;14.85;;;6.63;;
74624;SDS011;63131;52.298;8.056;2022-11-15T00:53:39;15.25;;;6.78;;
74624;SDS011;63131;52.298;8.056;2022-11-15T00:56:05;16.00;;;6.93;;
74624;SDS011;63131;52.298;8.056;2022-11-15T00:58:30;14.25;;;7.45;;
74624;SDS011;63131;52.298;8.056;2022-11-15T01:00:55;15.15;;;7.00;;
74624;SDS011;63131;52.298;8.056;2022-11-15T01:03:21;15.35;;;7.00;;
74624;SDS011;63131;52.298;8.056;2022-11-15T01:05:46;15.48;;;6.85;;
74624;SDS011;63131;52.298;8.056;2022-11-15T01:08:15;15.38;;;6.25;;
74624;SDS011;63131;52.298;8.056;2022-11-15T01:10:41;16.13;;;7.30;;
74624;SDS011;63131;52.298;8.056;2022-11-15T01:13:06;15.45;;;6.55;;
74624;SDS011;63131;52.298;8.056;2022-11-15T01:15:32;15.23;;;6.40;;
74624;SDS011;63131;52.298;8.056;2022-11-15T01:17:57;15.05;;;6.55;;
74624;SDS011;63131;52.298;8.056;2022-11-15T01:20:22;14.40;;;6.10;;
74624;SDS011;63131;52.298;8.056;2022-11-15T01:22:47;11.35;;;5.53;;
74624;SDS011;63131;52.298;8.056;2022-11-15T01:25:13;13.85;;;5.55;;
74624;SDS011;63131;52.298;8.056;2022-11-15T01:27:38;12.30;;;5.63;;
74624;SDS011;63131;52.298;8.056;2022-11-15T01:30:04;12.73;;;5.78;;
74624;SDS011;63131;52.298;8.056;2022-11-15T01:32:30;12.90;;;5.78;;
74624;SDS011;63131;52.298;8.056;2022-11-15T01:34:55;13.02;;;5.47;;
74624;SDS011;63131;52.298;8.056;2022-11-15T01:37:20;12.68;;;6.25;;
74624;SDS011;63131;52.298;8.056;2022-11-15T01:39:46;12.85;;;5.90;;
74624;SDS011;63131;52.298;8.056;2022-11-15T01:42:14;12.60;;;5.63;;
74624;SDS011;63131;52.298;8.056;2022-11-15T01:44:41;11.85;;;5.25;;
74624;SDS011;63131;52.298;8.056;2022-11-15T01:49:54;12.15;;;5.88;;
74624;SDS011;63131;52.298;8.056;2022-11-15T01:52:22;11.32;;;5.35;;
74624;SDS011;63131;52.298;8.056;2022-11-15T01:54:50;11.75;;;5.38;;
74624;SDS011;63131;52.298;8.056;2022-11-15T01:57:33;12.25;;;5.50;;
74624;SDS011;63131;52.298;8.056;2022-11-15T01:59:59;12.00;;;5.50;;
74624;SDS011;63131;52.298;8.056;2022-11-15T02:02:25;11.93;;;5.57;;
74624;SDS011;63131;52.298;8.056;2022-11-15T02:04:51;12.88;;;5.82;;
74624;SDS011;63131;52.298;8.056;2022-11-15T02:07:16;10.80;;;5.13;;
74624;SDS011;63131;52.298;8.056;2022-11-15T02:09:43;11.82;;;5.47;;
74624;SDS011;63131;52.298;8.056;2022-11-15T02:12:09;10.30;;;5.00;;
74624;SDS011;63131;52.298;8.056;2022-11-15T02:14:36;10.48;;;4.63;;
74624;SDS011;63131;52.298;8.056;2022-11-15T02:23:02;10.70;;;4.47;;
74624;SDS011;63131;52.298;8.056;2022-11-15T02:31:02;12.27;;;5.47;;
74624;SDS011;63131;52.298;8.056;2022-11-15T02:33:35;11.95;;;5.22;;
74624;SDS011;63131;52.298;8.056;2022-11-15T02:36:05;12.95;;;5.43;;
74624;SDS011;63131;52.298;8.056;2022-11-15T02:38:34;13.18;;;5.43;;
74624;SDS011;63131;52.298;8.056;2022-11-15T02:41:07;10.38;;;4.80;;
74624;SDS011;63131;52.298;8.056;2022-11-15T02:46:58;10.15;;;5.32;;
74624;SDS011;63131;52.298;8.056;2022-11-15T02:49:38;12.10;;;4.85;;
74624;SDS011;63131;52.298;8.056;2022-11-15T02:52:18;10.40;;;5.25;;
74624;SDS011;63131;52.298;8.056;2022-11-15T02:54:58;10.23;;;5.28;;
74624;SDS011;63131;52.298;8.056;2022-11-15T02:57:34;10.30;;;5.07;;
74624;SDS011;63131;52.298;8.056;2022-11-15T03:00:13;10.77;;;4.95;;
74624;SDS011;63131;52.298;8.056;2022-11-15T03:09:02;10.68;;;5.13;;
74624;SDS011;63131;52.298;8.056;2022-11-15T03:11:29;12.18;;;5.35;;
74624;SDS011;63131;52.298;8.056;2022-11-15T03:13:59;12.13;;;4.78;;
74624;SDS011;63131;52.298;8.056;2022-11-15T03:16:41;11.73;;;5.05;;
74624;SDS011;63131;52.298;8.056;2022-11-15T03:19:14;12.25;;;5.60;;
74624;SDS011;63131;52.298;8.056;2022-11-15T03:21:47;10.38;;;4.90;;
74624;SDS011;63131;52.298;8.056;2022-11-15T03:24:14;12.32;;;5.18;;
74624;SDS011;63131;52.298;8.056;2022-11-15T03:26:41;11.80;;;5.75;;
74624;SDS011;63131;52.298;8.056;2022-11-15T03:29:15;10.38;;;5.40;;
74624;SDS011;63131;52.298;8.056;2022-11-15T03:31:44;11.45;;;5.32;;
74624;SDS011;63131;52.298;8.056;2022-11-15T03:34:13;11.77;;;4.90;;
74624;SDS011;63131;52.298;8.056;2022-11-15T03:36:43;11.45;;;4.85;;
74624;SDS011;63131;52.298;8.056;2022-11-15T03:39:09;11.43;;;5.07;;
74624;SDS011;63131;52.298;8.056;2022-11-15T03:44:18;9.63;;;4.45;;
74624;SDS011;63131;52.298;8.056;2022-11-15T03:49:31;10.82;;;4.80;;
74624;SDS011;63131;52.298;8.056;2022-11-15T03:51:59;11.43;;;4.78;;
74624;SDS011;63131;52.298;8.056;2022-11-15T03:54:25;14.23;;;5.82;;
74624;SDS011;63131;52.298;8.056;2022-11-15T03:56:50;11.25;;;5.22;;
74624;SDS011;63131;52.298;8.056;2022-11-15T03:59:16;9.80;;;4.35;;
74624;SDS011;63131;52.298;8.056;2022-11-15T04:01:41;10.27;;;4.68;;
74624;SDS011;63131;52.298;8.056;2022-11-15T04:04:06;11.95;;;5.47;;
74624;SDS011;63131;52.298;8.056;2022-11-15T04:06:32;11.98;;;4.50;;
74624;SDS011;63131;52.298;8.056;2022-11-15T04:08:57;10.10;;;5.22;;
74624;SDS011;63131;52.298;8.056;2022-11-15T04:11:22;12.80;;;4.90;;
74624;SDS011;63131;52.298;8.056;2022-11-15T04:13:48;11.38;;;4.88;;
74624;SDS011;63131;52.298;8.056;2022-11-15T04:16:13;12.57;;;5.43;;
74624;SDS011;63131;52.298;8.056;2022-11-15T04:18:38;12.23;;;5.45;;
74624;SDS011;63131;52.298;8.056;2022-11-15T04:21:04;12.50;;;5.90;;
74624;SDS011;63131;52.298;8.056;2022-11-15T04:23:47;10.90;;;4.72;;
74624;SDS011;63131;52.298;8.056;2022-11-15T04:26:32;11.93;;;5.50;;
74624;SDS011;63131;52.298;8.056;2022-11-15T04:28:57;10.63;;;4.97;;
74624;SDS011;63131;52.298;8.056;2022-11-15T04:31:41;12.02;;;5.47;;
74624;SDS011;63131;52.298;8.056;2022-11-15T04:34:07;10.73;;;5.00;;
74624;SDS011;63131;52.298;8.056;2022-11-15T04:36:32;9.95;;;5.00;;
74624;SDS011;63131;52.298;8.056;2022-11-15T04:39:16;11.43;;;5.00;;
74624;SDS011;63131;52.298;8.056;2022-11-15T04:41:41;12.32;;;4.95;;
74624;SDS011;63131;52.298;8.056;2022-11-15T04:44:07;10.95;;;5.30;;
74624;SDS011;63131;52.298;8.056;2022-11-15T04:46:32;10.55;;;5.05;;
74624;SDS011;63131;52.298;8.056;2022-11-15T04:48:57;11.02;;;5.00;;
74624;SDS011;63131;52.298;8.056;2022-11-15T04:51:23;12.55;;;5.78;;
74624;SDS011;63131;52.298;8.056;2022-11-15T04:53:48;12.02;;;5.25;;
74624;SDS011;63131;52.298;8.056;2022-11-15T04:56:13;9.80;;;4.53;;
74624;SDS011;63131;52.298;8.056;2022-11-15T04:58:39;13.73;;;5.28;;
74624;SDS011;63131;52.298;8.056;2022-11-15T05:01:12;13.15;;;5.22;;
74624;SDS011;63131;52.298;8.056;2022-11-15T05:03:41;11.90;;;4.90;;
74624;SDS011;63131;52.298;8.056;2022-11-15T05:06:25;12.50;;;4.88;;
74624;SDS011;63131;52.298;8.056;2022-11-15T05:08:51;11.48;;;5.25;;
74624;SDS011;63131;52.298;8.056;2022-11-15T05:11:16;10.05;;;4.47;;
74624;SDS011;63131;52.298;8.056;2022-11-15T05:13:42;11.68;;;5.10;;
74624;SDS011;63131;52.298;8.056;2022-11-15T05:16:07;11.73;;;5.72;;
74624;SDS011;63131;52.298;8.056;2022-11-15T05:18:32;11.63;;;5.32;;
74624;SDS011;63131;52.298;8.056;2022-11-15T05:21:04;11.80;;;5.07;;
74624;SDS011;63131;52.298;8.056;2022-11-15T05:23:30;11.15;;;5.05;;
74624;SDS011;63131;52.298;8.056;2022-11-15T05:26:00;10.02;;;5.05;;
74624;SDS011;63131;52.298;8.056;2022-11-15T05:28:25;13.43;;;5.60;;
74624;SDS011;63131;52.298;8.056;2022-11-15T05:30:51;12.07;;;4.97;;
74624;SDS011;63131;52.298;8.056;2022-11-15T05:33:17;10.68;;;5.10;;
74624;SDS011;63131;52.298;8.056;2022-11-15T05:35:42;11.90;;;6.05;;
74624;SDS011;63131;52.298;8.056;2022-11-15T05:38:19;13.20;;;5.43;;
74624;SDS011;63131;52.298;8.056;2022-11-15T05:40:44;11.85;;;5.32;;
74624;SDS011;63131;52.298;8.056;2022-11-15T05:43:10;11.93;;;5.18;;
74624;SDS011;63131;52.298;8.056;2022-11-15T05:45:35;9.82;;;4.80;;
74624;SDS011;63131;52.298;8.056;2022-11-15T05:48:03;10.98;;;4.90;;
74624;SDS011;63131;52.298;8.056;2022-11-15T05:50:31;10.63;;;5.45;;
74624;SDS011;63131;52.298;8.056;2022-11-15T05:52:56;11.13;;;5.40;;
74624;SDS011;63131;52.298;8.056;2022-11-15T05:55:22;11.85;;;5.25;;
74624;SDS011;63131;52.298;8.056;2022-11-15T05:57:47;10.85;;;4.95;;
74624;SDS011;63131;52.298;8.056;2022-11-15T06:00:13;9.75;;;5.07;;
74624;SDS011;63131;52.298;8.056;2022-11-15T06:02:38;12.40;;;5.43;;
74624;SDS011;63131;52.298;8.056;2022-11-15T06:05:03;11.05;;;5.32;;
74624;SDS011;63131;52.298;8.056;2022-11-15T06:07:29;11.93;;;5.18;;
74624;SDS011;63131;52.298;8.056;2022-11-15T06:09:55;10.90;;;6.03;;
74624;SDS011;63131;52.298;8.056;2022-11-15T06:12:20;12.98;;;5.55;;
74624;SDS011;63131;52.298;8.056;2022-11-15T06:14:45;11.95;;;5.85;;
74624;SDS011;63131;52.298;8.056;2022-11-15T06:17:10;12.75;;;5.97;;
74624;SDS011;63131;52.298;8.056;2022-11-15T06:19:36;12.63;;;5.65;;
74624;SDS011;63131;52.298;8.056;2022-11-15T06:22:01;11.45;;;5.60;;
74624;SDS011;63131;52.298;8.056;2022-11-15T06:24:27;12.38;;;5.43;;
74624;SDS011;63131;52.298;8.056;2022-11-15T06:26:52;12.15;;;5.88;;
74624;SDS011;63131;52.298;8.056;2022-11-15T06:29:17;12.18;;;6.57;;
74624;SDS011;63131;52.298;8.056;2022-11-15T06:31:43;11.57;;;4.93;;
74624;SDS011;63131;52.298;8.056;2022-11-15T06:34:08;11.18;;;5.45;;
74624;SDS011;63131;52.298;8.056;2022-11-15T06:36:34;12.60;;;5.70;;
74624;SDS011;63131;52.298;8.056;2022-11-15T06:39:00;13.77;;;5.75;;
74624;SDS011;63131;52.298;8.056;2022-11-15T06:41:26;13.30;;;5.80;;
74624;SDS011;63131;52.298;8.056;2022-11-15T06:43:51;12.10;;;5.25;;
74624;SDS011;63131;52.298;8.056;2022-11-15T06:46:16;13.30;;;5.80;;
74624;SDS011;63131;52.298;8.056;2022-11-15T06:48:42;12.48;;;5.78;;
74624;SDS011;63131;52.298;8.056;2022-11-15T06:51:07;12.10;;;5.72;;
74624;SDS011;63131;52.298;8.056;2022-11-15T06:53:33;11.48;;;5.35;;
74624;SDS011;63131;52.298;8.056;2022-11-15T06:55:59;11.65;;;5.43;;
74624;SDS011;63131;52.298;8.056;2022-11-15T06:58:25;12.75;;;5.55;;
74624;SDS011;63131;52.298;8.056;2022-11-15T07:00:51;11.10;;;5.50;;
74624;SDS011;63131;52.298;8.056;2022-11-15T07:03:16;11.77;;;5.45;;
74624;SDS011;63131;52.298;8.056;2022-11-15T07:05:41;11.27;;;5.60;;
74624;SDS011;63131;52.298;8.056;2022-11-15T07:08:06;10.40;;;5.15;;
74624;SDS011;63131;52.298;8.056;2022-11-15T07:10:32;11.57;;;5.47;;
74624;SDS011;63131;52.298;8.056;2022-11-15T07:12:57;12.32;;;5.97;;
74624;SDS011;63131;52.298;8.056;2022-11-15T07:15:23;11.38;;;5.30;;
74624;SDS011;63131;52.298;8.056;2022-11-15T07:17:49;11.95;;;5.35;;
74624;SDS011;63131;52.298;8.056;2022-11-15T07:20:15;12.07;;;5.53;;
74624;SDS011;63131;52.298;8.056;2022-11-15T07:22:41;11.75;;;5.85;;
74624;SDS011;63131;52.298;8.056;2022-11-15T07:25:06;13.23;;;5.32;;
74624;SDS011;63131;52.298;8.056;2022-11-15T07:27:32;11.63;;;5.93;;
74624;SDS011;63131;52.298;8.056;2022-11-15T07:29:57;10.35;;;5.53;;
74624;SDS011;63131;52.298;8.056;2022-11-15T07:32:23;16.45;;;8.35;;
74624;SDS011;63131;52.298;8.056;2022-11-15T07:34:48;16.70;;;7.72;;
74624;SDS011;63131;52.298;8.056;2022-11-15T07:37:13;17.00;;;7.00;;
74624;SDS011;63131;52.298;8.056;2022-11-15T07:39:39;14.90;;;6.57;;
74624;SDS011;63131;52.298;8.056;2022-11-15T07:42:04;12.98;;;6.70;;
74624;SDS011;63131;52.298;8.056;2022-11-15T07:44:48;13.68;;;6.30;;
74624;SDS011;63131;52.298;8.056;2022-11-15T07:47:13;13.55;;;6.82;;
74624;SDS011;63131;52.298;8.056;2022-11-15T07:49:39;10.77;;;5.85;;
74624;SDS011;63131;52.298;8.056;2022-11-15T07:52:04;11.57;;;6.72;;
74624;SDS011;63131;52.298;8.056;2022-11-15T07:54:29;10.93;;;5.97;;
74624;SDS011;63131;52.298;8.056;2022-11-15T07:56:55;11.98;;;6.25;;
74624;SDS011;63131;52.298;8.056;2022-11-15T07:59:20;10.57;;;5.32;;
74624;SDS011;63131;52.298;8.056;2022-11-15T08:01:45;11.45;;;5.57;;
74624;SDS011;63131;52.298;8.056;2022-11-15T08:04:11;10.68;;;5.95;;
74624;SDS011;63131;52.298;8.056;2022-11-15T08:06:36;12.73;;;6.40;;
74624;SDS011;63131;52.298;8.056;2022-11-15T08:09:02;12.30;;;5.50;;
74624;SDS011;63131;52.298;8.056;2022-11-15T08:11:27;10.80;;;5.13;;
74624;SDS011;63131;52.298;8.056;2022-11-15T08:13:53;13.30;;;5.68;;
74624;SDS011;63131;52.298;8.056;2022-11-15T08:16:18;11.27;;;5.30;;
74624;SDS011;63131;52.298;8.056;2022-11-15T08:18:43;11.35;;;5.28;;
74624;SDS011;63131;52.298;8.056;2022-11-15T08:21:09;12.57;;;5.60;;
74624;SDS011;63131;52.298;8.056;2022-11-15T08:23:34;10.77;;;5.20;;
74624;SDS011;63131;52.298;8.056;2022-11-15T08:26:01;11.13;;;4.95;;
74624;SDS011;63131;52.298;8.056;2022-11-15T08:28:27;12.90;;;5.57;;
74624;SDS011;63131;52.298;8.056;2022-11-15T08:30:53;11.38;;;5.25;;
74624;SDS011;63131;52.298;8.056;2022-11-15T08:33:18;11.85;;;5.03;;
74624;SDS011;63131;52.298;8.056;2022-11-15T08:35:44;11.27;;;5.18;;
74624;SDS011;63131;52.298;8.056;2022-11-15T08:38:09;10.32;;;4.70;;
74624;SDS011;63131;52.298;8.056;2022-11-15T08:40:35;9.95;;;5.07;;
74624;SDS011;63131;52.298;8.056;2022-11-15T08:43:00;11.05;;;4.38;;
74624;SDS011;63131;52.298;8.056;2022-11-15T08:45:27;11.30;;;4.88;;
74624;SDS011;63131;52.298;8.056;2022-11-15T08:47:53;11.25;;;5.18;;
74624;SDS011;63131;52.298;8.056;2022-11-15T08:50:19;9.30;;;4.68;;
74624;SDS011;63131;52.298;8.056;2022-11-15T08:52:44;13.00;;;4.90;;
74624;SDS011;63131;52.298;8.056;2022-11-15T08:55:09;9.77;;;4.00;;
74624;SDS011;63131;52.298;8.056;2022-11-15T08:57:35;8.88;;;4.15;;
74624;SDS011;63131;52.298;8.056;2022-11-15T09:00:00;10.45;;;4.10;;
74624;SDS011;63131;52.298;8.056;2022-11-15T09:02:26;9.25;;;4.07;;
74624;SDS011;63131;52.298;8.056;2022-11-15T09:04:51;9.25;;;4.20;;
74624;SDS011;63131;52.298;8.056;2022-11-15T09:07:16;10.05;;;4.32;;
74624;SDS011;63131;52.298;8.056;2022-11-15T09:09:42;9.10;;;3.53;;
74624;SDS011;63131;52.298;8.056;2022-11-15T09:12:07;8.23;;;3.63;;
74624;SDS011;63131;52.298;8.056;2022-11-15T09:14:33;11.77;;;4.53;;
74624;SDS011;63131;52.298;8.056;2022-11-15T09:16:59;9.82;;;4.15;;
74624;SDS011;63131;52.298;8.056;2022-11-15T09:19:24;9.38;;;3.85;;
74624;SDS011;63131;52.298;8.056;2022-11-15T09:21:50;10.55;;;3.80;;
74624;SDS011;63131;52.298;8.056;2022-11-15T09:24:15;8.77;;;3.85;;
74624;SDS011;63131;52.298;8.056;2022-11-15T09:26:40;9.80;;;4.38;;
74624;SDS011;63131;52.298;8.056;2022-11-15T09:29:06;9.07;;;4.00;;
74624;SDS011;63131;52.298;8.056;2022-11-15T09:31:31;8.13;;;3.20;;
74624;SDS011;63131;52.298;8.056;2022-11-15T09:33:57;8.68;;;3.63;;
74624;SDS011;63131;52.298;8.056;2022-11-15T09:36:22;8.02;;;3.30;;
74624;SDS011;63131;52.298;8.056;2022-11-15T09:38:47;7.95;;;3.45;;
74624;SDS011;63131;52.298;8.056;2022-11-15T09:46:17;7.22;;;2.78;;
74624;SDS011;63131;52.298;8.056;2022-11-15T09:49:12;8.63;;;3.60;;
74624;SDS011;63131;52.298;8.056;2022-11-15T09:51:40;8.75;;;3.17;;
74624;SDS011;63131;52.298;8.056;2022-11-15T09:57:04;7.50;;;2.80;;
74624;SDS011;63131;52.298;8.056;2022-11-15T10:05:16;7.28;;;2.40;;
74624;SDS011;63131;52.298;8.056;2022-11-15T10:07:50;8.27;;;2.78;;
74624;SDS011;63131;52.298;8.056;2022-11-15T10:13:18;6.60;;;2.38;;
74624;SDS011;63131;52.298;8.056;2022-11-15T10:15:47;6.78;;;2.40;;
74624;SDS011;63131;52.298;8.056;2022-11-15T10:18:14;6.95;;;2.25;;
74624;SDS011;63131;52.298;8.056;2022-11-15T10:20:50;6.82;;;2.20;;
74624;SDS011;63131;52.298;8.056;2022-11-15T10:23:20;6.10;;;2.30;;
74624;SDS011;63131;52.298;8.056;2022-11-15T10:25:47;6.55;;;2.00;;
74624;SDS011;63131;52.298;8.056;2022-11-15T10:28:16;5.60;;;1.92;;
74624;SDS011;63131;52.298;8.056;2022-11-15T10:30:47;5.60;;;1.48;;
74624;SDS011;63131;52.298;8.056;2022-11-15T10:41:28;4.43;;;1.38;;
74624;SDS011;63131;52.298;8.056;2022-11-15T10:46:37;5.38;;;1.40;;
74624;SDS011;63131;52.298;8.056;2022-11-15T10:52:14;4.65;;;1.42;;
74624;SDS011;63131;52.298;8.056;2022-11-15T10:54:46;3.78;;;1.27;;
74624;SDS011;63131;52.298;8.056;2022-11-15T10:57:23;5.60;;;1.73;;
74624;SDS011;63131;52.298;8.056;2022-11-15T10:59:52;5.38;;;1.65;;
74624;SDS011;63131;52.298;8.056;2022-11-15T11:02:39;4.22;;;1.48;;
74624;SDS011;63131;52.298;8.056;2022-11-15T11:05:34;3.80;;;1.20;;
74624;SDS011;63131;52.298;8.056;2022-11-15T11:10:34;2.60;;;1.00;;
74624;SDS011;63131;52.298;8.056;2022-11-15T11:15:38;3.45;;;1.25;;
74624;SDS011;63131;52.298;8.056;2022-11-15T11:18:10;4.38;;;1.35;;
74624;SDS011;63131;52.298;8.056;2022-11-15T11:20:43;5.90;;;1.58;;
74624;SDS011;63131;52.298;8.056;2022-11-15T11:27:08;3.58;;;1.10;;
74624;SDS011;63131;52.298;8.056;2022-11-15T11:37:16;4.22;;;1.30;;
74624;SDS011;63131;52.298;8.056;2022-11-15T11:42:42;2.83;;;1.20;;
74624;SDS011;63131;52.298;8.056;2022-11-15T11:47:51;4.50;;;1.35;;
74624;SDS011;63131;52.298;8.056;2022-11-15T11:50:26;5.15;;;1.33;;
74624;SDS011;63131;52.298;8.056;2022-11-15T11:55:59;3.08;;;1.20;;
74624;SDS011;63131;52.298;8.056;2022-11-15T11:58:38;4.45;;;1.30;;
74624;SDS011;63131;52.298;8.056;2022-11-15T12:11:43;4.38;;;1.00;;
74624;SDS011;63131;52.298;8.056;2022-11-15T12:14:18;4.40;;;1.23;;
74624;SDS011;63131;52.298;8.056;2022-11-15T12:16:46;7.47;;;2.53;;
74624;SDS011;63131;52.298;8.056;2022-11-15T12:19:11;4.47;;;1.40;;
74624;SDS011;63131;52.298;8.056;2022-11-15T12:21:54;4.15;;;1.13;;
74624;SDS011;63131;52.298;8.056;2022-11-15T12:30:00;3.38;;;1.00;;
74624;SDS011;63131;52.298;8.056;2022-11-15T12:32:30;2.83;;;0.93;;
74624;SDS011;63131;52.298;8.056;2022-11-15T12:35:00;3.88;;;1.00;;
74624;SDS011;63131;52.298;8.056;2022-11-15T12:58:27;3.13;;;1.10;;
74624;SDS011;63131;52.298;8.056;2022-11-15T13:00:55;6.63;;;1.50;;
74624;SDS011;63131;52.298;8.056;2022-11-15T13:05:53;3.92;;;1.10;;
74624;SDS011;63131;52.298;8.056;2022-11-15T13:08:44;2.67;;;1.08;;
74624;SDS011;63131;52.298;8.056;2022-11-15T13:19:45;5.00;;;1.40;;
74624;SDS011;63131;52.298;8.056;2022-11-15T13:22:11;2.33;;;1.10;;
74624;SDS011;63131;52.298;8.056;2022-11-15T13:24:55;5.65;;;1.38;;
74624;SDS011;63131;52.298;8.056;2022-11-15T13:27:21;3.55;;;1.10;;
74624;SDS011;63131;52.298;8.056;2022-11-15T13:32:12;3.37;;;1.00;;
74624;SDS011;63131;52.298;8.056;2022-11-15T13:34:39;4.72;;;1.42;;
74624;SDS011;63131;52.298;8.056;2022-11-15T13:37:32;4.78;;;1.40;;
74624;SDS011;63131;52.298;8.056;2022-11-15T13:40:09;3.22;;;1.33;;
74624;SDS011;63131;52.298;8.056;2022-11-15T13:42:45;5.43;;;1.25;;
74624;SDS011;63131;52.298;8.056;2022-11-15T13:47:38;7.13;;;1.17;;
74624;SDS011;63131;52.298;8.056;2022-11-15T13:50:03;5.47;;;1.50;;
74624;SDS011;63131;52.298;8.056;2022-11-15T13:52:35;5.40;;;1.40;;
74624;SDS011;63131;52.298;8.056;2022-11-15T13:55:03;5.07;;;1.52;;
74624;SDS011;63131;52.298;8.056;2022-11-15T13:57:42;5.60;;;1.40;;
74624;SDS011;63131;52.298;8.056;2022-11-15T14:03:12;4.25;;;1.35;;
74624;SDS011;63131;52.298;8.056;2022-11-15T14:05:40;4.80;;;1.50;;
74624;SDS011;63131;52.298;8.056;2022-11-15T14:10:42;5.75;;;1.67;;
74624;SDS011;63131;52.298;8.056;2022-11-15T14:15:52;5.75;;;1.50;;
74624;SDS011;63131;52.298;8.056;2022-11-15T14:21:08;4.07;;;1.33;;
74624;SDS011;63131;52.298;8.056;2022-11-15T14:23:33;4.65;;;1.20;;
74624;SDS011;63131;52.298;8.056;2022-11-15T14:33:21;7.05;;;1.73;;
74624;SDS011;63131;52.298;8.056;2022-11-15T14:35:53;4.72;;;1.42;;
74624;SDS011;63131;52.298;8.056;2022-11-15T14:40:44;4.77;;;1.50;;
74624;SDS011;63131;52.298;8.056;2022-11-15T14:43:10;5.30;;;1.60;;
74624;SDS011;63131;52.298;8.056;2022-11-15T14:45:36;5.22;;;1.52;;
74624;SDS011;63131;52.298;8.056;2022-11-15T14:48:02;5.25;;;1.90;;
74624;SDS011;63131;52.298;8.056;2022-11-15T14:50:28;4.15;;;1.65;;
74624;SDS011;63131;52.298;8.056;2022-11-15T14:52:53;7.38;;;1.90;;
74624;SDS011;63131;52.298;8.056;2022-11-15T14:57:45;4.72;;;1.60;;
74624;SDS011;63131;52.298;8.056;2022-11-15T15:00:11;5.20;;;1.50;;
74624;SDS011;63131;52.298;8.056;2022-11-15T15:02:37;5.28;;;1.67;;
74624;SDS011;63131;52.298;8.056;2022-11-15T15:05:17;6.75;;;1.75;;
74624;SDS011;63131;52.298;8.056;2022-11-15T15:07:46;4.90;;;1.50;;
74624;SDS011;63131;52.298;8.056;2022-11-15T15:12:38;4.90;;;1.77;;
74624;SDS011;63131;52.298;8.056;2022-11-15T15:15:04;5.97;;;1.67;;
74624;SDS011;63131;52.298;8.056;2022-11-15T15:17:29;4.93;;;1.65;;
74624;SDS011;63131;52.298;8.056;2022-11-15T15:19:55;6.85;;;2.00;;
74624;SDS011;63131;52.298;8.056;2022-11-15T15:24:47;5.25;;;1.50;;
74624;SDS011;63131;52.298;8.056;2022-11-15T15:29:38;7.07;;;1.97;;
74624;SDS011;63131;52.298;8.056;2022-11-15T15:32:04;8.77;;;2.20;;
74624;SDS011;63131;52.298;8.056;2022-11-15T15:34:30;8.80;;;2.33;;
74624;SDS011;63131;52.298;8.056;2022-11-15T15:39:33;7.00;;;2.00;;
74624;SDS011;63131;52.298;8.056;2022-11-15T15:44:23;7.73;;;1.83;;
74624;SDS011;63131;52.298;8.056;2022-11-15T15:46:49;8.02;;;2.42;;
74624;SDS011;63131;52.298;8.056;2022-11-15T15:49:14;6.25;;;2.30;;
74624;SDS011;63131;52.298;8.056;2022-11-15T15:51:39;6.28;;;2.08;;
74624;SDS011;63131;52.298;8.056;2022-11-15T15:54:05;10.15;;;2.40;;
74624;SDS011;63131;52.298;8.056;2022-11-15T15:56:30;8.82;;;2.67;;
74624;SDS011;63131;52.298;8.056;2022-11-15T15:58:56;7.85;;;2.30;;
74624;SDS011;63131;52.298;8.056;2022-11-15T16:01:21;10.38;;;2.83;;
74624;SDS011;63131;52.298;8.056;2022-11-15T16:03:46;7.57;;;2.72;;
74624;SDS011;63131;52.298;8.056;2022-11-15T16:06:32;8.13;;;2.72;;
74624;SDS011;63131;52.298;8.056;2022-11-15T16:09:00;7.93;;;2.60;;
74624;SDS011;63131;52.298;8.056;2022-11-15T16:11:26;9.23;;;3.05;;
74624;SDS011;63131;52.298;8.056;2022-11-15T16:13:52;7.28;;;2.60;;
74624;SDS011;63131;52.298;8.056;2022-11-15T16:16:17;9.05;;;2.70;;
74624;SDS011;63131;52.298;8.056;2022-11-15T16:18:44;9.20;;;2.50;;
74624;SDS011;63131;52.298;8.056;2022-11-15T16:21:09;7.32;;;2.35;;
74624;SDS011;63131;52.298;8.056;2022-11-15T16:23:35;8.38;;;2.50;;
74624;SDS011;63131;52.298;8.056;2022-11-15T16:26:00;6.25;;;2.10;;
74624;SDS011;63131;52.298;8.056;2022-11-15T16:28:29;5.88;;;2.20;;
74624;SDS011;63131;52.298;8.056;2022-11-15T16:31:02;7.00;;;2.28;;
74624;SDS011;63131;52.298;8.056;2022-11-15T16:33:32;7.18;;;2.40;;
74624;SDS011;63131;52.298;8.056;2022-11-15T16:35:58;7.93;;;2.35;;
74624;SDS011;63131;52.298;8.056;2022-11-15T16:38:23;6.97;;;2.30;;
74624;SDS011;63131;52.298;8.056;2022-11-15T16:40:48;8.07;;;2.42;;
74624;SDS011;63131;52.298;8.056;2022-11-15T16:43:14;7.60;;;2.22;;
74624;SDS011;63131;52.298;8.056;2022-11-15T16:45:39;6.53;;;2.25;;
74624;SDS011;63131;52.298;8.056;2022-11-15T16:48:05;6.43;;;2.22;;
74624;SDS011;63131;52.298;8.056;2022-11-15T16:50:31;6.95;;;2.70;;
74624;SDS011;63131;52.298;8.056;2022-11-15T16:53:03;9.23;;;3.30;;
74624;SDS011;63131;52.298;8.056;2022-11-15T16:55:29;7.88;;;3.20;;
74624;SDS011;63131;52.298;8.056;2022-11-15T16:57:55;7.57;;;2.85;;
74624;SDS011;63131;52.298;8.056;2022-11-15T17:00:22;9.23;;;3.30;;
74624;SDS011;63131;52.298;8.056;2022-11-15T17:05:14;8.13;;;2.92;;
74624;SDS011;63131;52.298;8.056;2022-11-15T17:07:41;8.88;;;2.90;;
74624;SDS011;63131;52.298;8.056;2022-11-15T17:10:07;9.85;;;2.88;;
74624;SDS011;63131;52.298;8.056;2022-11-15T17:12:35;7.03;;;2.70;;
74624;SDS011;63131;52.298;8.056;2022-11-15T17:15:00;8.05;;;3.35;;
74624;SDS011;63131;52.298;8.056;2022-11-15T17:17:26;10.25;;;5.35;;
74624;SDS011;63131;52.298;8.056;2022-11-15T17:19:52;9.43;;;4.85;;
74624;SDS011;63131;52.298;8.056;2022-11-15T17:22:18;9.35;;;3.80;;
74624;SDS011;63131;52.298;8.056;2022-11-15T17:24:43;8.38;;;3.88;;
74624;SDS011;63131;52.298;8.056;2022-11-15T17:27:09;7.45;;;3.40;;
74624;SDS011;63131;52.298;8.056;2022-11-15T17:29:34;10.02;;;3.72;;
74624;SDS011;63131;52.298;8.056;2022-11-15T17:32:00;9.02;;;4.30;;
74624;SDS011;63131;52.298;8.056;2022-11-15T17:34:25;10.55;;;6.80;;
74624;SDS011;63131;52.298;8.056;2022-11-15T17:36:50;9.27;;;4.05;;
74624;SDS011;63131;52.298;8.056;2022-11-15T17:39:15;7.85;;;2.90;;